sensor_id;sensor_type;location;lat;lon;timestamp;temperature;humidity
23783;DHT22;12071;50.850;4.446;2023-09-19T00:00:38;16.30;99.90
23783;DHT22;12071;50.850;4.446;2023-09-19T00:03:03;16.20;99.90
23783;DHT22;12071;50.850;4.446;2023-09-19T00:05:34;16.20;99.90
23783;DHT22;12071;50.850;4.446;2023-09-19T00:08:00;16.10;99.90
23783;DHT22;12071;50.850;4.446;2023-09-19T00:10:27;16.10;99.90
23783;DHT22;12071;50.850;4.446;2023-09-19T00:12:56;16.30;99.90
23783;DHT22;12071;50.850;4.446;2023-09-19T00:15:23;16.10;99.90
23783;DHT22;12071;50.850;4.446;2023-09-19T00:17:49;16.10;99.90
23783;DHT22;12071;50.850;4.446;2023-09-19T00:20:18;16.10;99.90
23783;DHT22;12071;50.850;4.446;2023-09-19T00:22:44;16.10;99.90
23783;DHT22;12071;50.850;4.446;2023-09-19T00:25:11;16.10;99.90
23783;DHT22;12071;50.850;4.446;2023-09-19T00:27:38;16.20;99.90
23783;DHT22;12071;50.850;4.446;2023-09-19T00:30:09;16.10;99.90
23783;DHT22;12071;50.850;4.446;2023-09-19T00:32:42;16.10;99.90
23783;DHT22;12071;50.850;4.446;2023-09-19T00:35:08;16.20;99.90
23783;DHT22;12071;50.850;4.446;2023-09-19T00:37:37;16.20;99.90
23783;DHT22;12071;50.850;4.446;2023-09-19T00:40:06;16.10;99.90
23783;DHT22;12071;50.850;4.446;2023-09-19T00:42:35;16.20;99.90
23783;DHT22;12071;50.850;4.446;2023-09-19T00:45:07;16.10;99.90
23783;DHT22;12071;50.850;4.446;2023-09-19T00:47:35;16.10;99.90
23783;DHT22;12071;50.850;4.446;2023-09-19T00:50:00;16.10;99.90
23783;DHT22;12071;50.850;4.446;2023-09-19T00:52:28;16.10;99.90
23783;DHT22;12071;50.850;4.446;2023-09-19T00:54:54;16.00;99.90
23783;DHT22;12071;50.850;4.446;2023-09-19T00:57:25;16.00;99.90
23783;DHT22;12071;50.850;4.446;2023-09-19T00:59:54;16.00;99.90
23783;DHT22;12071;50.850;4.446;2023-09-19T01:02:21;16.00;99.90
23783;DHT22;12071;50.850;4.446;2023-09-19T01:04:47;15.90;99.90
23783;DHT22;12071;50.850;4.446;2023-09-19T01:07:13;16.00;99.90
23783;DHT22;12071;50.850;4.446;2023-09-19T01:09:41;16.10;99.90
23783;DHT22;12071;50.850;4.446;2023-09-19T01:12:08;16.10;99.90
23783;DHT22;12071;50.850;4.446;2023-09-19T01:15:03;16.00;99.90
23783;DHT22;12071;50.850;4.446;2023-09-19T01:17:45;16.10;99.90
23783;DHT22;12071;50.850;4.446;2023-09-19T01:28:32;15.90;76.90
23783;DHT22;12071;50.850;4.446;2023-09-19T01:31:07;15.80;98.70
23783;DHT22;12071;50.850;4.446;2023-09-19T01:33:54;15.90;99.90
23783;DHT22;12071;50.850;4.446;2023-09-19T01:36:27;16.00;94.90
23783;DHT22;12071;50.850;4.446;2023-09-19T01:38:54;16.00;63.40
23783;DHT22;12071;50.850;4.446;2023-09-19T01:41:35;15.90;90.40
23783;DHT22;12071;50.850;4.446;2023-09-19T01:44:06;15.90;99.90
23783;DHT22;12071;50.850;4.446;2023-09-19T01:46:36;15.90;92.00
23783;DHT22;12071;50.850;4.446;2023-09-19T01:49:18;15.90;95.00
23783;DHT22;12071;50.850;4.446;2023-09-19T01:52:11;15.90;87.50
23783;DHT22;12071;50.850;4.446;2023-09-19T01:54:48;15.80;99.90
23783;DHT22;12071;50.850;4.446;2023-09-19T01:57:31;16.00;85.00
23783;DHT22;12071;50.850;4.446;2023-09-19T02:00:05;15.90;77.70
23783;DHT22;12071;50.850;4.446;2023-09-19T02:02:36;15.70;99.90
23783;DHT22;12071;50.850;4.446;2023-09-19T02:05:03;15.70;99.90
23783;DHT22;12071;50.850;4.446;2023-09-19T02:07:29;15.70;99.90
23783;DHT22;12071;50.850;4.446;2023-09-19T02:09:57;15.90;91.10
23783;DHT22;12071;50.850;4.446;2023-09-19T02:12:24;16.00;27.00
23783;DHT22;12071;50.850;4.446;2023-09-19T02:14:50;15.80;23.80
23783;DHT22;12071;50.850;4.446;2023-09-19T02:17:15;15.70;44.70
23783;DHT22;12071;50.850;4.446;2023-09-19T02:19:42;15.70;38.30
23783;DHT22;12071;50.850;4.446;2023-09-19T02:22:08;15.80;1.00
23783;DHT22;12071;50.850;4.446;2023-09-19T02:24:38;15.70;1.00
23783;DHT22;12071;50.850;4.446;2023-09-19T02:27:04;15.70;1.00
23783;DHT22;12071;50.850;4.446;2023-09-19T02:29:31;15.80;1.00
23783;DHT22;12071;50.850;4.446;2023-09-19T02:31:57;16.00;1.00
23783;DHT22;12071;50.850;4.446;2023-09-19T02:34:27;16.10;1.00
23783;DHT22;12071;50.850;4.446;2023-09-19T02:36:53;16.10;1.00
23783;DHT22;12071;50.850;4.446;2023-09-19T02:39:20;16.10;1.00
23783;DHT22;12071;50.850;4.446;2023-09-19T02:41:46;16.10;1.00
23783;DHT22;12071;50.850;4.446;2023-09-19T02:44:11;16.00;1.00
23783;DHT22;12071;50.850;4.446;2023-09-19T02:46:37;16.00;1.00
23783;DHT22;12071;50.850;4.446;2023-09-19T02:49:03;15.80;1.00
23783;DHT22;12071;50.850;4.446;2023-09-19T02:51:33;15.80;1.00
23783;DHT22;12071;50.850;4.446;2023-09-19T02:53:59;15.70;1.00
23783;DHT22;12071;50.850;4.446;2023-09-19T02:56:25;15.80;1.00
23783;DHT22;12071;50.850;4.446;2023-09-19T02:58:51;15.80;1.00
23783;DHT22;12071;50.850;4.446;2023-09-19T03:01:17;15.70;1.00
23783;DHT22;12071;50.850;4.446;2023-09-19T03:03:44;15.70;1.00
23783;DHT22;12071;50.850;4.446;2023-09-19T03:06:11;15.80;1.00
23783;DHT22;12071;50.850;4.446;2023-09-19T03:08:38;15.80;1.00
23783;DHT22;12071;50.850;4.446;2023-09-19T03:11:05;15.70;1.00
23783;DHT22;12071;50.850;4.446;2023-09-19T03:13:32;15.70;1.00
23783;DHT22;12071;50.850;4.446;2023-09-19T03:15:58;15.70;20.20
23783;DHT22;12071;50.850;4.446;2023-09-19T03:18:24;15.80;1.00
23783;DHT22;12071;50.850;4.446;2023-09-19T03:20:56;15.60;25.90
23783;DHT22;12071;50.850;4.446;2023-09-19T03:23:22;15.60;83.80
23783;DHT22;12071;50.850;4.446;2023-09-19T03:25:48;15.70;52.00
23783;DHT22;12071;50.850;4.446;2023-09-19T03:28:14;15.80;61.70
23783;DHT22;12071;50.850;4.446;2023-09-19T03:30:43;15.80;73.20
23783;DHT22;12071;50.850;4.446;2023-09-19T03:33:09;15.70;99.90
23783;DHT22;12071;50.850;4.446;2023-09-19T03:35:38;15.50;99.90
23783;DHT22;12071;50.850;4.446;2023-09-19T03:38:05;15.40;99.90
23783;DHT22;12071;50.850;4.446;2023-09-19T03:40:31;15.60;99.90
23783;DHT22;12071;50.850;4.446;2023-09-19T03:42:58;15.50;99.90
23783;DHT22;12071;50.850;4.446;2023-09-19T03:45:27;15.60;99.90
23783;DHT22;12071;50.850;4.446;2023-09-19T03:47:54;15.60;99.90
23783;DHT22;12071;50.850;4.446;2023-09-19T03:50:20;15.70;99.90
23783;DHT22;12071;50.850;4.446;2023-09-19T03:52:45;15.50;99.90
23783;DHT22;12071;50.850;4.446;2023-09-19T03:55:12;15.50;99.90
23783;DHT22;12071;50.850;4.446;2023-09-19T03:57:38;15.60;99.90
23783;DHT22;12071;50.850;4.446;2023-09-19T04:00:05;15.50;99.90
23783;DHT22;12071;50.850;4.446;2023-09-19T04:02:38;15.30;99.90
23783;DHT22;12071;50.850;4.446;2023-09-19T04:05:04;15.40;99.90
23783;DHT22;12071;50.850;4.446;2023-09-19T04:07:33;15.50;99.90
23783;DHT22;12071;50.850;4.446;2023-09-19T04:09:59;15.70;99.90
23783;DHT22;12071;50.850;4.446;2023-09-19T04:12:25;15.60;99.90
23783;DHT22;12071;50.850;4.446;2023-09-19T04:14:50;15.60;99.90
23783;DHT22;12071;50.850;4.446;2023-09-19T04:17:17;15.40;99.90
23783;DHT22;12071;50.850;4.446;2023-09-19T04:19:43;15.30;99.90
23783;DHT22;12071;50.850;4.446;2023-09-19T04:22:11;15.40;99.90
23783;DHT22;12071;50.850;4.446;2023-09-19T04:24:38;15.30;99.90
23783;DHT22;12071;50.850;4.446;2023-09-19T04:27:04;15.20;99.90
23783;DHT22;12071;50.850;4.446;2023-09-19T04:29:36;15.40;99.90
23783;DHT22;12071;50.850;4.446;2023-09-19T04:32:03;15.50;99.90
23783;DHT22;12071;50.850;4.446;2023-09-19T04:34:30;15.40;99.90
23783;DHT22;12071;50.850;4.446;2023-09-19T04:36:56;15.50;99.90
23783;DHT22;12071;50.850;4.446;2023-09-19T04:39:23;15.30;99.90
23783;DHT22;12071;50.850;4.446;2023-09-19T04:41:51;15.30;99.90
23783;DHT22;12071;50.850;4.446;2023-09-19T04:44:17;15.10;99.90
23783;DHT22;12071;50.850;4.446;2023-09-19T04:46:44;15.10;99.90
23783;DHT22;12071;50.850;4.446;2023-09-19T04:49:13;15.00;99.90
23783;DHT22;12071;50.850;4.446;2023-09-19T04:51:39;15.00;99.90
23783;DHT22;12071;50.850;4.446;2023-09-19T04:54:06;15.20;99.90
23783;DHT22;12071;50.850;4.446;2023-09-19T04:56:32;15.30;99.90
23783;DHT22;12071;50.850;4.446;2023-09-19T04:58:58;15.30;99.90
23783;DHT22;12071;50.850;4.446;2023-09-19T05:01:25;15.20;99.90
23783;DHT22;12071;50.850;4.446;2023-09-19T05:03:50;15.20;99.90
23783;DHT22;12071;50.850;4.446;2023-09-19T05:06:21;15.30;99.90
23783;DHT22;12071;50.850;4.446;2023-09-19T05:08:48;15.20;99.90
23783;DHT22;12071;50.850;4.446;2023-09-19T05:11:20;15.10;99.90
23783;DHT22;12071;50.850;4.446;2023-09-19T05:13:50;15.00;99.90
23783;DHT22;12071;50.850;4.446;2023-09-19T05:16:16;14.90;99.90
23783;DHT22;12071;50.850;4.446;2023-09-19T05:18:42;14.90;99.90
23783;DHT22;12071;50.850;4.446;2023-09-19T05:21:08;14.90;99.90
23783;DHT22;12071;50.850;4.446;2023-09-19T05:23:33;14.90;99.90
23783;DHT22;12071;50.850;4.446;2023-09-19T05:25:59;14.90;99.90
23783;DHT22;12071;50.850;4.446;2023-09-19T05:28:26;14.80;99.90
23783;DHT22;12071;50.850;4.446;2023-09-19T05:30:52;14.80;99.90
23783;DHT22;12071;50.850;4.446;2023-09-19T05:33:19;14.90;99.90
23783;DHT22;12071;50.850;4.446;2023-09-19T05:35:45;15.00;99.90
23783;DHT22;12071;50.850;4.446;2023-09-19T05:38:13;15.20;99.90
23783;DHT22;12071;50.850;4.446;2023-09-19T05:40:40;15.20;99.90
23783;DHT22;12071;50.850;4.446;2023-09-19T05:43:08;15.00;99.90
23783;DHT22;12071;50.850;4.446;2023-09-19T05:45:34;15.00;99.90
23783;DHT22;12071;50.850;4.446;2023-09-19T05:48:12;15.00;99.90
23783;DHT22;12071;50.850;4.446;2023-09-19T05:50:42;15.20;99.90
23783;DHT22;12071;50.850;4.446;2023-09-19T05:53:08;15.20;99.90
23783;DHT22;12071;50.850;4.446;2023-09-19T05:55:36;15.20;99.90
23783;DHT22;12071;50.850;4.446;2023-09-19T05:58:02;15.10;99.90
23783;DHT22;12071;50.850;4.446;2023-09-19T06:00:29;15.20;99.90
23783;DHT22;12071;50.850;4.446;2023-09-19T06:02:58;15.10;99.90
23783;DHT22;12071;50.850;4.446;2023-09-19T06:05:27;15.30;99.90
23783;DHT22;12071;50.850;4.446;2023-09-19T06:07:53;15.20;99.90
23783;DHT22;12071;50.850;4.446;2023-09-19T06:10:19;15.20;99.90
23783;DHT22;12071;50.850;4.446;2023-09-19T06:12:48;15.20;99.90
23783;DHT22;12071;50.850;4.446;2023-09-19T06:15:15;15.20;99.90
23783;DHT22;12071;50.850;4.446;2023-09-19T06:17:52;15.30;99.90
23783;DHT22;12071;50.850;4.446;2023-09-19T06:20:20;15.30;99.90
23783;DHT22;12071;50.850;4.446;2023-09-19T06:22:48;15.30;99.90
23783;DHT22;12071;50.850;4.446;2023-09-19T06:25:15;15.40;99.90
23783;DHT22;12071;50.850;4.446;2023-09-19T06:27:48;15.60;99.90
23783;DHT22;12071;50.850;4.446;2023-09-19T06:30:15;15.40;99.90
23783;DHT22;12071;50.850;4.446;2023-09-19T06:32:43;15.50;99.90
23783;DHT22;12071;50.850;4.446;2023-09-19T06:35:16;15.50;99.90
23783;DHT22;12071;50.850;4.446;2023-09-19T06:37:42;15.60;99.90
23783;DHT22;12071;50.850;4.446;2023-09-19T06:40:12;15.50;99.90
23783;DHT22;12071;50.850;4.446;2023-09-19T06:42:43;15.40;99.90
23783;DHT22;12071;50.850;4.446;2023-09-19T06:45:15;15.50;99.90
23783;DHT22;12071;50.850;4.446;2023-09-19T06:47:49;15.50;99.90
23783;DHT22;12071;50.850;4.446;2023-09-19T06:50:16;15.60;99.90
23783;DHT22;12071;50.850;4.446;2023-09-19T06:52:44;15.80;99.90
23783;DHT22;12071;50.850;4.446;2023-09-19T06:55:12;15.70;99.90
23783;DHT22;12071;50.850;4.446;2023-09-19T06:57:39;15.70;99.90
23783;DHT22;12071;50.850;4.446;2023-09-19T07:00:10;15.80;99.90
23783;DHT22;12071;50.850;4.446;2023-09-19T07:03:01;15.80;99.90
23783;DHT22;12071;50.850;4.446;2023-09-19T07:05:30;15.90;99.90
23783;DHT22;12071;50.850;4.446;2023-09-19T07:07:57;15.70;99.90
23783;DHT22;12071;50.850;4.446;2023-09-19T07:10:26;15.70;99.90
23783;DHT22;12071;50.850;4.446;2023-09-19T07:13:06;15.70;99.90
23783;DHT22;12071;50.850;4.446;2023-09-19T07:15:34;15.70;99.90
23783;DHT22;12071;50.850;4.446;2023-09-19T07:18:13;15.80;99.90
23783;DHT22;12071;50.850;4.446;2023-09-19T07:20:40;15.90;99.90
23783;DHT22;12071;50.850;4.446;2023-09-19T07:23:11;15.70;99.90
23783;DHT22;12071;50.850;4.446;2023-09-19T07:25:39;15.80;99.90
23783;DHT22;12071;50.850;4.446;2023-09-19T07:28:06;15.70;99.90
23783;DHT22;12071;50.850;4.446;2023-09-19T07:30:32;15.80;99.90
23783;DHT22;12071;50.850;4.446;2023-09-19T07:32:58;16.00;99.90
23783;DHT22;12071;50.850;4.446;2023-09-19T07:35:23;16.20;99.90
23783;DHT22;12071;50.850;4.446;2023-09-19T07:37:49;16.30;99.90
23783;DHT22;12071;50.850;4.446;2023-09-19T07:40:18;16.30;99.90
23783;DHT22;12071;50.850;4.446;2023-09-19T07:42:45;16.20;99.90
23783;DHT22;12071;50.850;4.446;2023-09-19T07:45:12;16.30;99.90
23783;DHT22;12071;50.850;4.446;2023-09-19T07:47:46;16.60;99.90
23783;DHT22;12071;50.850;4.446;2023-09-19T07:50:12;16.60;99.90
23783;DHT22;12071;50.850;4.446;2023-09-19T07:52:38;16.60;99.90
23783;DHT22;12071;50.850;4.446;2023-09-19T07:55:06;16.50;99.90
23783;DHT22;12071;50.850;4.446;2023-09-19T07:57:37;16.40;99.90
23783;DHT22;12071;50.850;4.446;2023-09-19T08:00:03;16.30;99.90
23783;DHT22;12071;50.850;4.446;2023-09-19T08:02:34;16.40;99.90
23783;DHT22;12071;50.850;4.446;2023-09-19T08:05:00;16.40;99.90
23783;DHT22;12071;50.850;4.446;2023-09-19T08:07:26;16.50;99.90
23783;DHT22;12071;50.850;4.446;2023-09-19T08:09:51;16.60;99.90
23783;DHT22;12071;50.850;4.446;2023-09-19T08:12:18;16.60;96.00
23783;DHT22;12071;50.850;4.446;2023-09-19T08:14:49;16.50;99.90
23783;DHT22;12071;50.850;4.446;2023-09-19T08:17:16;16.50;99.90
23783;DHT22;12071;50.850;4.446;2023-09-19T08:19:41;16.60;99.90
23783;DHT22;12071;50.850;4.446;2023-09-19T08:22:10;16.70;99.90
23783;DHT22;12071;50.850;4.446;2023-09-19T08:24:36;16.90;74.20
23783;DHT22;12071;50.850;4.446;2023-09-19T08:27:03;16.90;63.10
23783;DHT22;12071;50.850;4.446;2023-09-19T08:29:30;16.90;40.80
23783;DHT22;12071;50.850;4.446;2023-09-19T08:31:57;17.00;22.80
23783;DHT22;12071;50.850;4.446;2023-09-19T08:34:26;17.10;1.00
23783;DHT22;12071;50.850;4.446;2023-09-19T08:36:52;17.00;1.00
23783;DHT22;12071;50.850;4.446;2023-09-19T08:39:22;17.00;1.00
23783;DHT22;12071;50.850;4.446;2023-09-19T08:41:49;17.10;1.00
23783;DHT22;12071;50.850;4.446;2023-09-19T08:44:15;17.30;1.00
23783;DHT22;12071;50.850;4.446;2023-09-19T08:46:41;17.30;1.00
23783;DHT22;12071;50.850;4.446;2023-09-19T08:49:19;17.40;1.00
23783;DHT22;12071;50.850;4.446;2023-09-19T08:52:01;17.40;1.00
23783;DHT22;12071;50.850;4.446;2023-09-19T08:54:35;17.50;1.00
23783;DHT22;12071;50.850;4.446;2023-09-19T08:57:07;17.60;99.90
23783;DHT22;12071;50.850;4.446;2023-09-19T08:59:38;17.60;99.90
23783;DHT22;12071;50.850;4.446;2023-09-19T09:02:11;17.70;99.90
23783;DHT22;12071;50.850;4.446;2023-09-19T09:04:40;17.80;99.90
23783;DHT22;12071;50.850;4.446;2023-09-19T09:07:13;17.70;1.00
23783;DHT22;12071;50.850;4.446;2023-09-19T09:09:40;17.60;1.00
23783;DHT22;12071;50.850;4.446;2023-09-19T09:12:13;17.60;1.00
23783;DHT22;12071;50.850;4.446;2023-09-19T09:14:40;17.80;44.20
23783;DHT22;12071;50.850;4.446;2023-09-19T09:17:05;18.20;99.90
23783;DHT22;12071;50.850;4.446;2023-09-19T09:19:32;18.50;99.90
23783;DHT22;12071;50.850;4.446;2023-09-19T09:22:08;18.60;99.90
23783;DHT22;12071;50.850;4.446;2023-09-19T09:24:34;18.50;99.90
23783;DHT22;12071;50.850;4.446;2023-09-19T09:27:04;18.50;99.90
23783;DHT22;12071;50.850;4.446;2023-09-19T09:29:43;18.40;99.90
23783;DHT22;12071;50.850;4.446;2023-09-19T09:32:29;18.30;99.90
23783;DHT22;12071;50.850;4.446;2023-09-19T09:35:00;18.40;99.90
23783;DHT22;12071;50.850;4.446;2023-09-19T09:37:27;18.40;99.90
23783;DHT22;12071;50.850;4.446;2023-09-19T09:40:00;18.60;99.90
23783;DHT22;12071;50.850;4.446;2023-09-19T09:42:45;18.70;99.90
23783;DHT22;12071;50.850;4.446;2023-09-19T09:45:20;18.70;99.90
23783;DHT22;12071;50.850;4.446;2023-09-19T09:48:01;18.90;99.90
23783;DHT22;12071;50.850;4.446;2023-09-19T09:50:47;18.90;27.20
23783;DHT22;12071;50.850;4.446;2023-09-19T09:53:27;18.60;99.90
23783;DHT22;12071;50.850;4.446;2023-09-19T09:58:32;19.00;99.90
23783;DHT22;12071;50.850;4.446;2023-09-19T10:00:59;18.90;99.90
23783;DHT22;12071;50.850;4.446;2023-09-19T10:03:38;18.90;1.00
23783;DHT22;12071;50.850;4.446;2023-09-19T10:06:11;18.80;99.90
23783;DHT22;12071;50.850;4.446;2023-09-19T10:09:03;18.60;1.00
23783;DHT22;12071;50.850;4.446;2023-09-19T10:11:41;18.50;47.10
23783;DHT22;12071;50.850;4.446;2023-09-19T10:14:10;18.60;1.00
23783;DHT22;12071;50.850;4.446;2023-09-19T10:16:49;18.70;99.60
23783;DHT22;12071;50.850;4.446;2023-09-19T10:19:27;18.90;1.00
23783;DHT22;12071;50.850;4.446;2023-09-19T10:21:55;18.90;99.90
23783;DHT22;12071;50.850;4.446;2023-09-19T10:24:23;19.00;1.00
23783;DHT22;12071;50.850;4.446;2023-09-19T10:26:53;19.00;99.90
23783;DHT22;12071;50.850;4.446;2023-09-19T10:29:21;19.00;99.90
23783;DHT22;12071;50.850;4.446;2023-09-19T10:31:49;18.90;1.00
23783;DHT22;12071;50.850;4.446;2023-09-19T10:34:17;19.10;95.90
23783;DHT22;12071;50.850;4.446;2023-09-19T10:36:46;19.40;18.60
23783;DHT22;12071;50.850;4.446;2023-09-19T10:39:16;19.60;99.90
23783;DHT22;12071;50.850;4.446;2023-09-19T10:41:51;19.40;1.00
23783;DHT22;12071;50.850;4.446;2023-09-19T10:44:23;19.40;99.90
23783;DHT22;12071;50.850;4.446;2023-09-19T10:46:56;19.40;99.90
23783;DHT22;12071;50.850;4.446;2023-09-19T10:49:22;19.40;60.70
23783;DHT22;12071;50.850;4.446;2023-09-19T10:51:52;19.50;4.10
23783;DHT22;12071;50.850;4.446;2023-09-19T10:54:22;19.60;14.20
23783;DHT22;12071;50.850;4.446;2023-09-19T10:56:53;19.50;52.10
23783;DHT22;12071;50.850;4.446;2023-09-19T10:59:26;19.60;99.90
23783;DHT22;12071;50.850;4.446;2023-09-19T11:02:00;19.70;1.00
23783;DHT22;12071;50.850;4.446;2023-09-19T11:04:50;19.90;1.00
23783;DHT22;12071;50.850;4.446;2023-09-19T11:07:19;19.90;99.90
23783;DHT22;12071;50.850;4.446;2023-09-19T11:09:55;19.90;99.90
23783;DHT22;12071;50.850;4.446;2023-09-19T11:18:53;20.10;99.90
23783;DHT22;12071;50.850;4.446;2023-09-19T11:29:31;20.60;1.00
23783;DHT22;12071;50.850;4.446;2023-09-19T11:31:57;20.60;1.00
23783;DHT22;12071;50.850;4.446;2023-09-19T11:37:18;20.70;1.00
23783;DHT22;12071;50.850;4.446;2023-09-19T11:40:08;20.70;1.00
23783;DHT22;12071;50.850;4.446;2023-09-19T11:42:53;20.80;1.00
23783;DHT22;12071;50.850;4.446;2023-09-19T11:48:16;20.90;99.90
23783;DHT22;12071;50.850;4.446;2023-09-19T11:50:45;20.90;99.90
23783;DHT22;12071;50.850;4.446;2023-09-19T11:53:13;20.80;99.90
23783;DHT22;12071;50.850;4.446;2023-09-19T11:55:39;20.80;99.90
23783;DHT22;12071;50.850;4.446;2023-09-19T11:58:08;20.70;99.90
23783;DHT22;12071;50.850;4.446;2023-09-19T12:00:35;20.70;99.90
23783;DHT22;12071;50.850;4.446;2023-09-19T12:03:08;20.70;99.90
23783;DHT22;12071;50.850;4.446;2023-09-19T12:05:35;20.70;99.90
23783;DHT22;12071;50.850;4.446;2023-09-19T12:08:05;20.60;99.90
23783;DHT22;12071;50.850;4.446;2023-09-19T12:10:55;20.50;99.90
23783;DHT22;12071;50.850;4.446;2023-09-19T12:13:21;20.30;99.90
23783;DHT22;12071;50.850;4.446;2023-09-19T12:15:50;20.10;1.00
23783;DHT22;12071;50.850;4.446;2023-09-19T12:18:31;20.20;1.00
23783;DHT22;12071;50.850;4.446;2023-09-19T12:20:57;20.10;1.00
23783;DHT22;12071;50.850;4.446;2023-09-19T12:23:24;20.10;21.40
23783;DHT22;12071;50.850;4.446;2023-09-19T12:25:51;20.30;1.00
23783;DHT22;12071;50.850;4.446;2023-09-19T12:28:18;20.30;1.00
23783;DHT22;12071;50.850;4.446;2023-09-19T12:30:44;20.30;1.00
23783;DHT22;12071;50.850;4.446;2023-09-19T12:33:20;20.40;1.00
23783;DHT22;12071;50.850;4.446;2023-09-19T12:35:47;20.60;1.00
23783;DHT22;12071;50.850;4.446;2023-09-19T12:38:26;20.70;1.00
23783;DHT22;12071;50.850;4.446;2023-09-19T12:41:01;20.50;1.00
23783;DHT22;12071;50.850;4.446;2023-09-19T12:43:39;20.70;1.00
23783;DHT22;12071;50.850;4.446;2023-09-19T12:46:07;20.90;1.00
23783;DHT22;12071;50.850;4.446;2023-09-19T12:48:33;21.10;99.90
23783;DHT22;12071;50.850;4.446;2023-09-19T12:53:34;21.50;99.90
23783;DHT22;12071;50.850;4.446;2023-09-19T12:56:03;21.20;99.90
23783;DHT22;12071;50.850;4.446;2023-09-19T12:58:34;21.00;99.90
23783;DHT22;12071;50.850;4.446;2023-09-19T13:01:01;20.90;99.90
23783;DHT22;12071;50.850;4.446;2023-09-19T13:03:30;20.90;99.90
23783;DHT22;12071;50.850;4.446;2023-09-19T13:06:02;20.80;99.90
23783;DHT22;12071;50.850;4.446;2023-09-19T13:13:51;21.00;99.90
23783;DHT22;12071;50.850;4.446;2023-09-19T13:16:21;21.00;99.90
23783;DHT22;12071;50.850;4.446;2023-09-19T13:18:53;21.10;1.00
23783;DHT22;12071;50.850;4.446;2023-09-19T13:21:33;21.10;1.00
23783;DHT22;12071;50.850;4.446;2023-09-19T13:24:22;20.90;1.00
23783;DHT22;12071;50.850;4.446;2023-09-19T13:26:51;21.20;1.00
23783;DHT22;12071;50.850;4.446;2023-09-19T13:29:17;21.30;99.90
23783;DHT22;12071;50.850;4.446;2023-09-19T13:31:50;21.50;99.90
23783;DHT22;12071;50.850;4.446;2023-09-19T13:34:19;21.10;99.90
23783;DHT22;12071;50.850;4.446;2023-09-19T13:36:45;21.20;99.90
23783;DHT22;12071;50.850;4.446;2023-09-19T13:39:17;21.20;1.00
23783;DHT22;12071;50.850;4.446;2023-09-19T13:41:47;21.10;99.90
23783;DHT22;12071;50.850;4.446;2023-09-19T13:44:14;21.20;99.90
23783;DHT22;12071;50.850;4.446;2023-09-19T13:46:39;21.10;99.90
23783;DHT22;12071;50.850;4.446;2023-09-19T13:49:06;21.20;99.90
23783;DHT22;12071;50.850;4.446;2023-09-19T13:51:32;21.30;99.90
23783;DHT22;12071;50.850;4.446;2023-09-19T13:53:58;21.20;99.90
23783;DHT22;12071;50.850;4.446;2023-09-19T13:56:27;21.30;99.90
23783;DHT22;12071;50.850;4.446;2023-09-19T13:58:57;21.20;99.90
23783;DHT22;12071;50.850;4.446;2023-09-19T14:01:23;21.00;99.90
23783;DHT22;12071;50.850;4.446;2023-09-19T14:03:49;20.90;99.90
23783;DHT22;12071;50.850;4.446;2023-09-19T14:06:17;21.10;1.00
23783;DHT22;12071;50.850;4.446;2023-09-19T14:08:43;21.20;99.90
23783;DHT22;12071;50.850;4.446;2023-09-19T14:11:12;21.00;99.90
23783;DHT22;12071;50.850;4.446;2023-09-19T14:13:39;20.60;1.00
23783;DHT22;12071;50.850;4.446;2023-09-19T14:16:08;20.80;1.00
23783;DHT22;12071;50.850;4.446;2023-09-19T14:18:35;20.70;1.00
23783;DHT22;12071;50.850;4.446;2023-09-19T14:21:06;20.70;1.00
23783;DHT22;12071;50.850;4.446;2023-09-19T14:23:36;20.80;1.00
23783;DHT22;12071;50.850;4.446;2023-09-19T14:26:02;21.00;99.90
23783;DHT22;12071;50.850;4.446;2023-09-19T14:28:28;21.10;99.90
23783;DHT22;12071;50.850;4.446;2023-09-19T14:30:56;21.30;99.90
23783;DHT22;12071;50.850;4.446;2023-09-19T14:33:21;21.90;99.90
23783;DHT22;12071;50.850;4.446;2023-09-19T14:35:47;21.80;99.90
23783;DHT22;12071;50.850;4.446;2023-09-19T14:38:13;21.70;99.90
23783;DHT22;12071;50.850;4.446;2023-09-19T14:40:39;21.60;99.90
23783;DHT22;12071;50.850;4.446;2023-09-19T14:43:05;23.20;1.00
23783;DHT22;12071;50.850;4.446;2023-09-19T14:45:35;24.60;21.00
23783;DHT22;12071;50.850;4.446;2023-09-19T14:48:01;25.00;1.00
23783;DHT22;12071;50.850;4.446;2023-09-19T14:50:31;25.00;99.90
23783;DHT22;12071;50.850;4.446;2023-09-19T14:52:56;24.90;99.90
23783;DHT22;12071;50.850;4.446;2023-09-19T14:55:23;24.30;99.90
23783;DHT22;12071;50.850;4.446;2023-09-19T14:57:50;23.80;1.00
23783;DHT22;12071;50.850;4.446;2023-09-19T15:00:18;23.50;1.00
23783;DHT22;12071;50.850;4.446;2023-09-19T15:02:46;23.10;1.00
23783;DHT22;12071;50.850;4.446;2023-09-19T15:05:13;22.60;1.00
23783;DHT22;12071;50.850;4.446;2023-09-19T15:07:42;22.20;99.90
23783;DHT22;12071;50.850;4.446;2023-09-19T15:10:07;21.80;99.90
23783;DHT22;12071;50.850;4.446;2023-09-19T15:12:36;21.60;99.90
23783;DHT22;12071;50.850;4.446;2023-09-19T15:15:04;21.20;99.90
23783;DHT22;12071;50.850;4.446;2023-09-19T15:17:33;21.20;1.00
23783;DHT22;12071;50.850;4.446;2023-09-19T15:19:59;21.00;1.00
23783;DHT22;12071;50.850;4.446;2023-09-19T15:22:25;21.00;1.00
23783;DHT22;12071;50.850;4.446;2023-09-19T15:24:52;21.00;1.00
23783;DHT22;12071;50.850;4.446;2023-09-19T15:27:17;20.80;99.90
23783;DHT22;12071;50.850;4.446;2023-09-19T15:29:45;20.70;99.90
23783;DHT22;12071;50.850;4.446;2023-09-19T15:32:11;20.90;99.90
23783;DHT22;12071;50.850;4.446;2023-09-19T15:34:37;20.90;99.90
23783;DHT22;12071;50.850;4.446;2023-09-19T15:37:03;20.80;99.90
23783;DHT22;12071;50.850;4.446;2023-09-19T15:39:32;20.70;99.90
23783;DHT22;12071;50.850;4.446;2023-09-19T15:42:02;20.50;1.00
23783;DHT22;12071;50.850;4.446;2023-09-19T15:44:28;20.40;72.60
23783;DHT22;12071;50.850;4.446;2023-09-19T15:46:53;20.40;99.90
23783;DHT22;12071;50.850;4.446;2023-09-19T15:49:19;20.30;99.90
23783;DHT22;12071;50.850;4.446;2023-09-19T15:51:46;20.20;99.90
23783;DHT22;12071;50.850;4.446;2023-09-19T15:54:15;20.20;99.90
23783;DHT22;12071;50.850;4.446;2023-09-19T15:56:45;20.20;1.00
23783;DHT22;12071;50.850;4.446;2023-09-19T15:59:11;20.20;1.00
23783;DHT22;12071;50.850;4.446;2023-09-19T16:01:43;20.10;1.00
23783;DHT22;12071;50.850;4.446;2023-09-19T16:04:10;20.20;1.00
23783;DHT22;12071;50.850;4.446;2023-09-19T16:06:36;20.30;1.00
23783;DHT22;12071;50.850;4.446;2023-09-19T16:09:03;20.20;1.00
23783;DHT22;12071;50.850;4.446;2023-09-19T16:11:32;20.00;99.90
23783;DHT22;12071;50.850;4.446;2023-09-19T16:13:58;20.10;99.90
23783;DHT22;12071;50.850;4.446;2023-09-19T16:16:26;20.20;99.90
23783;DHT22;12071;50.850;4.446;2023-09-19T16:18:57;20.20;99.90
23783;DHT22;12071;50.850;4.446;2023-09-19T16:21:28;20.40;23.10
23783;DHT22;12071;50.850;4.446;2023-09-19T16:23:54;20.30;1.00
23783;DHT22;12071;50.850;4.446;2023-09-19T16:26:21;20.10;99.90